Time;durP1;ratioP1;P1;durP2;ratioP2;P2;SDS_P1;SDS_P2;PMS_P1;PMS_P2;Temp;Humidity;BMP_temperature;BMP_pressure;BME280_temperature;BME280_humidity;BME280_pressure;Samples;Min_cycle;Max_cycle;Signal;HPM_P1;HPM_P2
2021/01/01 00:01:19;;;;;;;36.00;25.30;;;;;;;;;;5089665;28;20207;-74
2021/01/01 00:03:45;;;;;;;36.40;25.92;;;;;;;;;;5092910;28;20179;-75
2021/01/01 00:06:13;;;;;;;42.55;29.52;;;;;;;;;;5093272;28;20175;-75
2021/01/01 00:08:39;;;;;;;35.85;26.25;;;;;;;;;;5093683;28;20195;-76
2021/01/01 00:11:05;;;;;;;36.67;27.00;;;;;;;;;;5081787;28;20572;-75
2021/01/01 00:13:31;;;;;;;39.15;28.98;;;;;;;;;;5084448;28;20529;-74
2021/01/01 00:15:57;;;;;;;42.00;29.60;;;;;;;;;;5090108;28;20238;-75
2021/01/01 00:18:23;;;;;;;38.60;26.48;;;;;;;;;;5073003;28;20225;-75
2021/01/01 00:20:49;;;;;;;33.30;24.23;;;;;;;;;;5073213;28;20203;-74
2021/01/01 00:23:15;;;;;;;32.78;23.85;;;;;;;;;;5074620;28;20683;-76
2021/01/01 00:25:43;;;;;;;37.30;26.10;;;;;;;;;;5090024;28;20586;-76
2021/01/01 00:28:09;;;;;;;37.20;25.02;;;;;;;;;;5076540;28;20183;-74
2021/01/01 00:30:35;;;;;;;31.88;24.85;;;;;;;;;;5073509;28;20211;-73
2021/01/01 00:33:01;;;;;;;35.83;24.73;;;;;;;;;;5076169;28;20182;-76
2021/01/01 00:35:27;;;;;;;33.25;23.38;;;;;;;;;;5081752;28;20177;-77
2021/01/01 00:37:53;;;;;;;30.80;20.60;;;;;;;;;;5075024;28;20252;-75
2021/01/01 00:40:19;;;;;;;33.22;21.85;;;;;;;;;;5084944;28;20264;-75
2021/01/01 00:42:45;;;;;;;28.45;20.95;;;;;;;;;;5075024;28;20186;-76
2021/01/01 00:45:11;;;;;;;32.05;21.63;;;;;;;;;;5089970;28;20179;-75
2021/01/01 00:47:37;;;;;;;29.02;21.15;;;;;;;;;;5077237;28;20203;-74
2021/01/01 00:50:04;;;;;;;31.52;19.33;;;;;;;;;;5092164;28;20211;-73
2021/01/01 00:52:30;;;;;;;28.70;18.58;;;;;;;;;;5084623;28;20185;-75
2021/01/01 00:54:56;;;;;;;24.98;17.73;;;;;;;;;;5079940;28;20196;-76
2021/01/01 00:57:22;;;;;;;24.65;18.65;;;;;;;;;;5072083;28;20181;-75
2021/01/01 00:59:48;;;;;;;25.98;17.73;;;;;;;;;;5084187;28;20587;-77
2021/01/01 01:02:14;;;;;;;24.58;18.02;;;;;;;;;;5072059;28;20180;-74
2021/01/01 01:04:40;;;;;;;26.52;18.52;;;;;;;;;;5081213;28;20212;-74
2021/01/01 01:07:06;;;;;;;25.40;18.85;;;;;;;;;;5072040;28;20680;-77
2021/01/01 01:09:32;;;;;;;26.05;19.30;;;;;;;;;;5084616;28;20187;-74
2021/01/01 01:11:58;;;;;;;24.60;16.80;;;;;;;;;;5076598;28;20203;-76
2021/01/01 01:14:24;;;;;;;23.85;17.50;;;;;;;;;;5084426;28;20237;-76
2021/01/01 01:16:50;;;;;;;23.50;17.52;;;;;;;;;;5092236;28;20648;-74
2021/01/01 01:19:16;;;;;;;24.40;17.42;;;;;;;;;;5088881;28;20190;-76
2021/01/01 01:21:42;;;;;;;29.40;19.27;;;;;;;;;;5075840;28;20203;-75
2021/01/01 01:24:08;;;;;;;25.63;17.52;;;;;;;;;;5077751;28;20262;-75
2021/01/01 01:26:34;;;;;;;26.60;18.60;;;;;;;;;;5077734;28;20180;-75
2021/01/01 01:29:00;;;;;;;26.15;18.23;;;;;;;;;;5076157;28;20191;-76
2021/01/01 01:31:26;;;;;;;26.30;18.25;;;;;;;;;;5071841;28;20207;-75
2021/01/01 01:33:52;;;;;;;23.60;16.67;;;;;;;;;;5080425;28;20676;-73
2021/01/01 01:36:18;;;;;;;23.08;16.17;;;;;;;;;;5091871;28;20183;-73
2021/01/01 01:38:44;;;;;;;23.50;16.20;;;;;;;;;;5085297;28;20187;-74
2021/01/01 01:41:10;;;;;;;22.60;16.65;;;;;;;;;;5071127;28;20215;-76
2021/01/01 01:43:36;;;;;;;24.38;16.05;;;;;;;;;;5076584;28;20183;-75
2021/01/01 01:46:02;;;;;;;23.80;16.55;;;;;;;;;;5091671;28;20937;-75
2021/01/01 01:48:33;;;;;;;22.25;16.23;;;;;;;;;;5084946;28;20256;-75
2021/01/01 01:50:59;;;;;;;27.38;17.00;;;;;;;;;;5071386;28;20235;-76
2021/01/01 01:53:26;;;;;;;22.35;15.45;;;;;;;;;;5082912;28;20259;-75
2021/01/01 01:55:56;;;;;;;23.10;16.15;;;;;;;;;;5071049;28;20180;-74
2021/01/01 01:58:22;;;;;;;24.90;16.75;;;;;;;;;;5071284;28;20184;-75
2021/01/01 02:00:57;;;;;;;20.98;15.35;;;;;;;;;;5080992;28;20600;-77
2021/01/01 02:03:30;;;;;;;24.00;16.35;;;;;;;;;;5089142;28;20183;-74
2021/01/01 02:05:57;;;;;;;23.98;17.33;;;;;;;;;;5090058;28;20187;-76
2021/01/01 02:08:23;;;;;;;27.50;15.85;;;;;;;;;;5072862;28;20565;-75
2021/01/01 02:10:51;;;;;;;22.08;16.42;;;;;;;;;;5094737;28;20610;-75
2021/01/01 02:13:17;;;;;;;25.02;16.60;;;;;;;;;;5073014;28;20180;-77
2021/01/01 02:15:43;;;;;;;26.17;16.10;;;;;;;;;;5087517;28;20187;-75
2021/01/01 02:18:09;;;;;;;26.55;18.60;;;;;;;;;;5084738;28;20212;-74
2021/01/01 02:20:36;;;;;;;23.65;16.40;;;;;;;;;;5070548;28;20204;-74
2021/01/01 02:23:02;;;;;;;23.48;17.48;;;;;;;;;;5086102;28;20233;-75
2021/01/01 02:25:28;;;;;;;22.92;17.13;;;;;;;;;;5076871;28;20565;-74
2021/01/01 02:27:54;;;;;;;25.15;18.20;;;;;;;;;;5075328;28;20184;-76
2021/01/01 02:30:21;;;;;;;23.60;17.55;;;;;;;;;;5090405;28;20207;-76
2021/01/01 02:32:47;;;;;;;24.40;16.85;;;;;;;;;;5083808;28;20266;-74
2021/01/01 02:35:13;;;;;;;23.05;17.05;;;;;;;;;;5092005;28;20611;-76
2021/01/01 02:37:39;;;;;;;25.58;16.55;;;;;;;;;;5091529;28;20183;-72
2021/01/01 02:40:06;;;;;;;28.42;18.25;;;;;;;;;;5092006;28;20348;-77
2021/01/01 02:42:32;;;;;;;24.65;16.35;;;;;;;;;;5077951;28;20240;-75
2021/01/01 02:44:58;;;;;;;22.77;16.95;;;;;;;;;;5091110;28;20261;-75
2021/01/01 02:47:24;;;;;;;26.10;17.65;;;;;;;;;;5090833;28;20184;-74
2021/01/01 02:49:50;;;;;;;24.73;16.90;;;;;;;;;;5091667;28;20651;-75
2021/01/01 02:52:16;;;;;;;23.48;16.83;;;;;;;;;;5091155;28;20203;-75
2021/01/01 02:54:44;;;;;;;25.52;17.35;;;;;;;;;;5084292;28;20735;-77
2021/01/01 02:57:10;;;;;;;24.23;16.77;;;;;;;;;;5071287;28;20195;-74
2021/01/01 02:59:36;;;;;;;26.65;18.48;;;;;;;;;;5082227;28;20263;-76
2021/01/01 03:02:02;;;;;;;26.42;17.73;;;;;;;;;;5070399;28;20219;-73
2021/01/01 03:04:28;;;;;;;25.52;17.02;;;;;;;;;;5080372;28;20188;-76
2021/01/01 03:06:54;;;;;;;22.85;16.10;;;;;;;;;;5070536;28;20241;-76
2021/01/01 03:09:20;;;;;;;24.02;17.33;;;;;;;;;;5091041;28;20181;-75
2021/01/01 03:11:46;;;;;;;25.38;16.70;;;;;;;;;;5081507;28;20208;-74
2021/01/01 03:14:12;;;;;;;24.20;16.23;;;;;;;;;;5076569;28;20187;-76
2021/01/01 03:16:38;;;;;;;26.73;17.85;;;;;;;;;;5070411;28;20237;-75
2021/01/01 03:19:04;;;;;;;25.60;17.98;;;;;;;;;;5075346;28;20537;-76
2021/01/01 03:21:30;;;;;;;25.98;17.92;;;;;;;;;;5071296;28;20889;-75
2021/01/01 03:23:56;;;;;;;24.15;17.33;;;;;;;;;;5072867;28;20199;-76
2021/01/01 03:26:22;;;;;;;26.40;16.77;;;;;;;;;;5069280;28;20184;-74
2021/01/01 03:28:48;;;;;;;24.80;17.05;;;;;;;;;;5079495;28;20187;-74
2021/01/01 03:31:14;;;;;;;28.42;17.52;;;;;;;;;;5089501;28;20552;-76
2021/01/01 03:33:40;;;;;;;27.45;18.50;;;;;;;;;;5089145;28;20183;-74
2021/01/01 03:36:06;;;;;;;26.25;18.75;;;;;;;;;;5089589;28;20262;-74
2021/01/01 03:38:33;;;;;;;25.95;16.98;;;;;;;;;;5083411;28;20184;-74
2021/01/01 03:40:59;;;;;;;26.45;17.35;;;;;;;;;;5069295;28;20206;-73
2021/01/01 03:43:25;;;;;;;26.63;18.48;;;;;;;;;;5082856;28;20180;-74
2021/01/01 03:45:51;;;;;;;29.02;18.98;;;;;;;;;;5069211;28;20615;-74
2021/01/01 03:48:18;;;;;;;30.98;20.50;;;;;;;;;;5080817;28;20218;-76
2021/01/01 03:50:44;;;;;;;27.75;19.77;;;;;;;;;;5090126;28;20191;-77
2021/01/01 03:53:10;;;;;;;25.17;17.60;;;;;;;;;;5079935;28;20225;-74
2021/01/01 03:55:36;;;;;;;26.77;18.25;;;;;;;;;;5089371;28;20562;-75
2021/01/01 03:58:02;;;;;;;30.70;19.75;;;;;;;;;;5084095;28;20215;-76
2021/01/01 04:00:28;;;;;;;25.92;18.25;;;;;;;;;;5069805;28;20235;-79
2021/01/01 04:02:54;;;;;;;24.05;18.38;;;;;;;;;;5070153;28;20589;-75
2021/01/01 04:05:20;;;;;;;29.63;19.15;;;;;;;;;;5069317;28;20526;-76
2021/01/01 04:07:47;;;;;;;27.77;18.52;;;;;;;;;;5073621;28;20195;-75
2021/01/01 04:10:13;;;;;;;27.20;19.02;;;;;;;;;;5089720;28;20568;-77
2021/01/01 04:12:39;;;;;;;27.08;18.85;;;;;;;;;;5083389;28;20184;-74
2021/01/01 04:15:05;;;;;;;27.20;19.13;;;;;;;;;;5085504;28;20183;-76
2021/01/01 04:17:31;;;;;;;27.55;19.13;;;;;;;;;;5080134;28;20617;-76
2021/01/01 04:19:57;;;;;;;32.78;20.60;;;;;;;;;;5092810;28;20195;-74
2021/01/01 04:22:24;;;;;;;28.38;19.25;;;;;;;;;;5073551;28;20176;-75
2021/01/01 04:24:50;;;;;;;28.60;20.13;;;;;;;;;;5090365;28;20624;-75
2021/01/01 04:27:16;;;;;;;32.78;21.05;;;;;;;;;;5092927;28;20232;-74
2021/01/01 04:29:42;;;;;;;29.95;20.90;;;;;;;;;;5079935;28;20282;-74
2021/01/01 04:32:08;;;;;;;31.73;21.60;;;;;;;;;;5072568;28;20208;-75
2021/01/01 04:34:34;;;;;;;27.80;19.80;;;;;;;;;;5085732;28;20194;-77
2021/01/01 04:37:00;;;;;;;28.65;20.60;;;;;;;;;;5089006;28;20180;-76
2021/01/01 04:39:26;;;;;;;31.80;20.35;;;;;;;;;;5076312;28;20183;-76
2021/01/01 04:41:53;;;;;;;31.63;21.23;;;;;;;;;;5076108;28;20200;-74
2021/01/01 04:44:20;;;;;;;32.60;22.10;;;;;;;;;;5076133;28;20184;-74
2021/01/01 04:46:46;;;;;;;30.58;21.80;;;;;;;;;;5076201;28;20199;-75
2021/01/01 04:49:12;;;;;;;35.67;23.65;;;;;;;;;;5082851;28;20229;-75
2021/01/01 04:51:38;;;;;;;30.98;20.13;;;;;;;;;;5075679;28;20211;-76
2021/01/01 04:54:05;;;;;;;30.67;21.55;;;;;;;;;;5081679;28;20167;-76
2021/01/01 04:56:31;;;;;;;30.27;21.02;;;;;;;;;;5096180;28;20552;-74
2021/01/01 04:58:57;;;;;;;34.30;22.98;;;;;;;;;;5083019;28;20491;-74
2021/01/01 05:01:23;;;;;;;33.90;22.70;;;;;;;;;;5082393;28;20256;-76
2021/01/01 05:03:49;;;;;;;34.05;23.60;;;;;;;;;;5090585;28;20175;-75
2021/01/01 05:06:26;;;;;;;30.98;22.05;;;;;;;;;;5075878;28;20187;-75
2021/01/01 05:08:52;;;;;;;35.05;23.45;;;;;;;;;;5084294;28;20339;-75
2021/01/01 05:11:21;;;;;;;34.67;23.20;;;;;;;;;;5095445;28;20732;-74
2021/01/01 05:14:00;;;;;;;35.85;23.42;;;;;;;;;;5093291;28;20209;-76
2021/01/01 05:16:26;;;;;;;39.30;23.70;;;;;;;;;;5075595;28;20172;-75
2021/01/01 05:18:53;;;;;;;36.58;23.67;;;;;;;;;;5087733;28;20244;-75
2021/01/01 05:21:26;;;;;;;35.60;24.67;;;;;;;;;;5095437;28;20609;-74
2021/01/01 05:23:54;;;;;;;34.83;23.38;;;;;;;;;;5090886;28;20585;-78
2021/01/01 05:26:20;;;;;;;37.05;25.02;;;;;;;;;;5094788;28;20187;-75
2021/01/01 05:28:49;;;;;;;38.42;24.90;;;;;;;;;;5088840;28;20180;-77
2021/01/01 05:31:23;;;;;;;36.78;25.65;;;;;;;;;;5079766;28;20211;-74
2021/01/01 05:34:09;;;;;;;39.08;25.83;;;;;;;;;;5082023;28;20536;-77
2021/01/01 05:36:39;;;;;;;34.40;22.95;;;;;;;;;;5095540;28;20171;-76
2021/01/01 05:39:23;;;;;;;37.83;23.65;;;;;;;;;;5095443;28;20182;-76
2021/01/01 05:41:53;;;;;;;40.50;25.25;;;;;;;;;;5075411;28;20202;-74
2021/01/01 05:44:20;;;;;;;39.40;26.75;;;;;;;;;;5081022;28;20632;-77
2021/01/01 05:46:59;;;;;;;44.72;27.42;;;;;;;;;;5076889;28;20216;-74
2021/01/01 05:49:27;;;;;;;34.80;23.52;;;;;;;;;;5088552;28;20179;-74
2021/01/01 05:52:11;;;;;;;40.25;24.83;;;;;;;;;;5074703;28;20295;-74
2021/01/01 05:54:41;;;;;;;39.00;25.92;;;;;;;;;;5091281;28;20396;-74
2021/01/01 05:57:08;;;;;;;40.83;25.25;;;;;;;;;;5093875;28;20172;-74
2021/01/01 05:59:36;;;;;;;39.00;25.88;;;;;;;;;;5076012;28;20226;-75
2021/01/01 06:02:03;;;;;;;44.42;26.17;;;;;;;;;;5086060;28;20175;-74
2021/01/01 06:04:29;;;;;;;40.88;24.92;;;;;;;;;;5077065;28;20180;-77
2021/01/01 06:06:55;;;;;;;37.83;24.70;;;;;;;;;;5094688;28;20197;-72
2021/01/01 06:09:21;;;;;;;34.33;22.42;;;;;;;;;;5100406;28;20536;-75
2021/01/01 06:11:53;;;;;;;37.25;24.77;;;;;;;;;;5088716;28;20584;-74
2021/01/01 06:14:29;;;;;;;36.25;23.15;;;;;;;;;;5074192;28;20238;-75
2021/01/01 06:17:00;;;;;;;38.80;24.52;;;;;;;;;;5074931;28;20195;-76
2021/01/01 06:19:38;;;;;;;32.83;22.50;;;;;;;;;;5094559;28;20179;-75
2021/01/01 06:22:05;;;;;;;35.70;24.10;;;;;;;;;;5094525;28;20175;-77
2021/01/01 06:24:38;;;;;;;40.65;25.85;;;;;;;;;;5093727;28;20667;-75
2021/01/01 06:27:04;;;;;;;37.72;24.27;;;;;;;;;;5087557;28;20206;-74
2021/01/01 06:29:30;;;;;;;35.45;23.83;;;;;;;;;;5080382;28;20199;-75
2021/01/01 06:31:57;;;;;;;39.00;25.27;;;;;;;;;;5080762;28;20282;-75
2021/01/01 06:34:24;;;;;;;34.85;22.73;;;;;;;;;;5093403;28;20183;-75
2021/01/01 06:36:50;;;;;;;33.10;21.90;;;;;;;;;;5073870;28;20187;-74
2021/01/01 06:39:40;;;;;;;34.72;23.00;;;;;;;;;;5081518;28;20167;-77
2021/01/01 06:42:06;;;;;;;37.10;23.08;;;;;;;;;;5089994;28;20218;-76
2021/01/01 06:44:37;;;;;;;33.70;24.17;;;;;;;;;;5090062;28;20180;-76
2021/01/01 06:47:04;;;;;;;38.60;24.20;;;;;;;;;;5085473;28;20540;-75
2021/01/01 06:49:34;;;;;;;38.63;24.55;;;;;;;;;;5093824;28;20264;-76
2021/01/01 06:52:16;;;;;;;45.67;25.20;;;;;;;;;;5094151;28;20195;-77
2021/01/01 06:54:55;;;;;;;39.45;24.73;;;;;;;;;;5088777;28;20250;-75
2021/01/01 06:57:24;;;;;;;40.83;24.50;;;;;;;;;;5091875;28;20182;-76
2021/01/01 06:59:51;;;;;;;40.60;25.25;;;;;;;;;;5090424;28;20223;-75
2021/01/01 07:02:19;;;;;;;43.15;24.35;;;;;;;;;;5093824;28;20648;-75
2021/01/01 07:04:51;;;;;;;40.88;23.63;;;;;;;;;;5087590;28;20183;-76
2021/01/01 07:07:36;;;;;;;38.50;23.55;;;;;;;;;;5093554;28;20606;-76
2021/01/01 07:10:03;;;;;;;40.90;24.58;;;;;;;;;;5092743;28;20510;-76
2021/01/01 07:12:29;;;;;;;42.70;23.45;;;;;;;;;;5085943;28;20629;-77
2021/01/01 07:14:55;;;;;;;39.20;24.38;;;;;;;;;;5085609;28;20187;-75
2021/01/01 07:17:21;;;;;;;41.63;24.30;;;;;;;;;;5093424;28;20180;-75
2021/01/01 07:19:47;;;;;;;44.92;26.05;;;;;;;;;;5089200;28;20184;-77
2021/01/01 07:22:13;;;;;;;42.75;25.98;;;;;;;;;;5093676;28;20505;-75
2021/01/01 07:24:39;;;;;;;38.75;24.52;;;;;;;;;;5092852;28;20544;-74
2021/01/01 07:27:05;;;;;;;43.28;26.38;;;;;;;;;;5093249;28;20745;-75
2021/01/01 07:29:31;;;;;;;38.00;24.70;;;;;;;;;;5081904;28;20199;-73
2021/01/01 07:31:58;;;;;;;42.40;24.85;;;;;;;;;;5082425;28;20395;-75
2021/01/01 07:34:24;;;;;;;41.70;25.45;;;;;;;;;;5079234;28;20183;-74
2021/01/01 07:36:52;;;;;;;46.13;27.10;;;;;;;;;;5087787;28;20176;-75
2021/01/01 07:39:18;;;;;;;43.15;25.70;;;;;;;;;;5079633;28;20279;-74
2021/01/01 07:41:44;;;;;;;41.17;26.58;;;;;;;;;;5092458;28;20191;-76
2021/01/01 07:44:10;;;;;;;46.30;26.67;;;;;;;;;;5092563;28;20186;-78
2021/01/01 07:46:36;;;;;;;41.58;25.20;;;;;;;;;;5093138;28;20175;-75
2021/01/01 07:49:03;;;;;;;42.38;24.75;;;;;;;;;;5090437;28;20704;-73
2021/01/01 07:51:29;;;;;;;38.33;24.83;;;;;;;;;;5092801;28;20209;-75
2021/01/01 07:54:01;;;;;;;41.78;24.27;;;;;;;;;;5085796;28;20181;-76
2021/01/01 07:56:28;;;;;;;43.78;27.40;;;;;;;;;;5083350;28;20191;-76
2021/01/01 07:58:54;;;;;;;37.78;25.38;;;;;;;;;;5073717;28;20267;-76
2021/01/01 08:01:21;;;;;;;42.35;24.80;;;;;;;;;;5073993;28;20201;-74
2021/01/01 08:03:49;;;;;;;41.65;26.42;;;;;;;;;;5092778;28;20525;-76
2021/01/01 08:06:18;;;;;;;36.95;24.40;;;;;;;;;;5093116;28;20167;-76
2021/01/01 08:08:44;;;;;;;43.42;26.60;;;;;;;;;;5092727;28;20183;-75
2021/01/01 08:11:10;;;;;;;45.42;27.80;;;;;;;;;;5092412;28;20199;-76
2021/01/01 08:13:36;;;;;;;42.33;27.70;;;;;;;;;;5085562;28;20179;-76
2021/01/01 08:16:11;;;;;;;47.83;29.83;;;;;;;;;;5092125;28;20176;-74
2021/01/01 08:18:37;;;;;;;45.38;28.00;;;;;;;;;;5088154;28;20183;-76
2021/01/01 08:21:04;;;;;;;44.10;27.35;;;;;;;;;;5093726;28;20196;-75
2021/01/01 08:23:43;;;;;;;43.10;26.48;;;;;;;;;;5074924;28;20180;-75
2021/01/01 08:26:09;;;;;;;43.65;27.00;;;;;;;;;;5084540;28;20254;-75
2021/01/01 08:28:36;;;;;;;41.33;25.73;;;;;;;;;;5096234;28;20188;-77
2021/01/01 08:31:04;;;;;;;52.95;25.58;;;;;;;;;;5090978;28;20204;-77
2021/01/01 08:33:31;;;;;;;36.00;23.92;;;;;;;;;;5088736;28;20254;-76
2021/01/01 08:36:04;;;;;;;35.25;23.75;;;;;;;;;;5090093;28;20191;-76
2021/01/01 08:38:31;;;;;;;39.80;22.95;;;;;;;;;;5076041;28;20184;-78
2021/01/01 08:40:58;;;;;;;42.80;24.33;;;;;;;;;;5079073;28;20199;-76
2021/01/01 08:43:24;;;;;;;40.60;23.52;;;;;;;;;;5096804;28;20209;-78
2021/01/01 08:45:51;;;;;;;39.53;23.45;;;;;;;;;;5095888;28;20207;-75
2021/01/01 08:48:17;;;;;;;43.65;24.55;;;;;;;;;;5096205;28;20184;-75
2021/01/01 08:50:44;;;;;;;45.40;25.20;;;;;;;;;;5094256;28;20210;-74
2021/01/01 08:53:11;;;;;;;37.95;24.77;;;;;;;;;;5083145;28;20177;-78
2021/01/01 08:55:37;;;;;;;39.80;23.77;;;;;;;;;;5081385;28;20583;-74
2021/01/01 08:58:10;;;;;;;41.65;24.35;;;;;;;;;;5082580;28;20734;-77
2021/01/01 09:00:36;;;;;;;40.85;24.25;;;;;;;;;;5087264;28;20217;-74
2021/01/01 09:03:06;;;;;;;38.03;23.58;;;;;;;;;;5094880;28;20180;-75
2021/01/01 09:05:33;;;;;;;38.67;23.25;;;;;;;;;;5080775;28;20174;-74
2021/01/01 09:08:09;;;;;;;41.45;24.33;;;;;;;;;;5090895;28;20199;-75
2021/01/01 09:10:35;;;;;;;33.35;21.60;;;;;;;;;;5085230;28;20215;-75
2021/01/01 09:13:12;;;;;;;36.08;23.00;;;;;;;;;;5084178;28;20164;-74
2021/01/01 09:15:38;;;;;;;37.15;22.48;;;;;;;;;;5075287;28;20180;-75
2021/01/01 09:18:08;;;;;;;35.63;22.85;;;;;;;;;;5082542;28;20267;-75
2021/01/01 09:20:35;;;;;;;39.40;24.25;;;;;;;;;;5094609;28;20236;-74
2021/01/01 09:23:01;;;;;;;35.72;23.13;;;;;;;;;;5075614;28;20180;-74
2021/01/01 09:25:28;;;;;;;36.72;23.30;;;;;;;;;;5079744;28;20188;-74
2021/01/01 09:27:55;;;;;;;42.50;24.35;;;;;;;;;;5080602;28;20188;-75
2021/01/01 09:30:22;;;;;;;36.35;23.20;;;;;;;;;;5095147;28;20199;-76
2021/01/01 09:32:53;;;;;;;37.75;23.95;;;;;;;;;;5081983;28;20199;-76
2021/01/01 09:35:20;;;;;;;35.03;22.52;;;;;;;;;;5094983;28;20175;-73
2021/01/01 09:37:53;;;;;;;35.83;23.35;;;;;;;;;;5094137;28;20644;-74
2021/01/01 09:40:20;;;;;;;40.05;23.17;;;;;;;;;;5080709;28;20688;-75
2021/01/01 09:42:46;;;;;;;36.95;22.42;;;;;;;;;;5075493;28;20605;-77
2021/01/01 09:45:12;;;;;;;36.17;23.50;;;;;;;;;;5084824;28;20560;-75
2021/01/01 09:47:38;;;;;;;37.67;23.52;;;;;;;;;;5090712;28;20192;-76
2021/01/01 09:50:05;;;;;;;34.92;22.45;;;;;;;;;;5093044;28;20191;-74
2021/01/01 09:52:31;;;;;;;39.25;24.83;;;;;;;;;;5095316;28;20200;-76
2021/01/01 09:54:57;;;;;;;41.15;25.80;;;;;;;;;;5085229;28;20207;-74
2021/01/01 09:57:23;;;;;;;39.80;24.05;;;;;;;;;;5075041;28;20177;-75
2021/01/01 09:59:49;;;;;;;36.05;25.48;;;;;;;;;;5074764;28;20177;-76
2021/01/01 10:02:15;;;;;;;37.55;24.30;;;;;;;;;;5075234;28;20180;-74
2021/01/01 10:04:41;;;;;;;39.97;23.13;;;;;;;;;;5074798;28;20536;-75
2021/01/01 10:07:07;;;;;;;34.95;23.52;;;;;;;;;;5089458;28;20229;-73
2021/01/01 10:09:33;;;;;;;36.35;23.80;;;;;;;;;;5102630;28;20182;-76
2021/01/01 10:12:03;;;;;;;38.90;24.75;;;;;;;;;;5081177;28;20203;-75
2021/01/01 10:14:29;;;;;;;41.95;26.67;;;;;;;;;;5073937;28;20176;-75
2021/01/01 10:16:55;;;;;;;39.22;26.45;;;;;;;;;;5081649;28;20176;-77
2021/01/01 10:19:21;;;;;;;38.15;26.90;;;;;;;;;;5089452;28;20178;-74
2021/01/01 10:21:47;;;;;;;34.45;24.25;;;;;;;;;;5077018;28;20195;-76
2021/01/01 10:24:13;;;;;;;43.40;27.05;;;;;;;;;;5079990;28;20656;-76
2021/01/01 10:26:40;;;;;;;36.53;24.35;;;;;;;;;;5082710;28;20249;-76
2021/01/01 10:29:06;;;;;;;38.83;25.67;;;;;;;;;;5090669;28;20194;-76
2021/01/01 10:31:32;;;;;;;34.60;23.52;;;;;;;;;;5090228;28;20215;-76
2021/01/01 10:33:58;;;;;;;34.13;24.10;;;;;;;;;;5089882;28;20262;-77
2021/01/01 10:36:24;;;;;;;35.97;24.70;;;;;;;;;;5076923;28;20696;-77
2021/01/01 10:38:50;;;;;;;34.72;23.90;;;;;;;;;;5084210;28;20237;-77
2021/01/01 10:41:17;;;;;;;38.33;24.27;;;;;;;;;;5081742;28;20208;-77
2021/01/01 10:43:43;;;;;;;33.17;24.05;;;;;;;;;;5069789;28;20188;-78
2021/01/01 10:46:09;;;;;;;35.42;23.75;;;;;;;;;;5075911;28;20184;-77
2021/01/01 10:48:35;;;;;;;35.85;24.15;;;;;;;;;;5090720;28;20543;-78
2021/01/01 10:51:01;;;;;;;35.30;22.67;;;;;;;;;;5090423;28;20622;-76
2021/01/01 10:53:27;;;;;;;38.35;23.27;;;;;;;;;;5087738;28;20721;-78
2021/01/01 10:55:53;;;;;;;35.97;23.73;;;;;;;;;;5087610;28;20183;-77
2021/01/01 10:58:26;;;;;;;35.92;23.58;;;;;;;;;;5089874;28;20509;-77
2021/01/01 11:00:53;;;;;;;33.90;22.92;;;;;;;;;;5090176;28;20195;-76
2021/01/01 11:03:19;;;;;;;34.63;23.85;;;;;;;;;;5077022;28;20180;-76
2021/01/01 11:05:45;;;;;;;36.22;23.20;;;;;;;;;;5073019;28;20187;-76
2021/01/01 11:08:11;;;;;;;36.08;23.33;;;;;;;;;;5081262;28;20560;-78
2021/01/01 11:10:37;;;;;;;33.65;21.67;;;;;;;;;;5097620;28;20205;-77
2021/01/01 11:13:05;;;;;;;36.10;22.75;;;;;;;;;;5093621;28;20199;-77
2021/01/01 12:25:02;;;;;;;30.55;21.35;;;;;;;;;;5094609;28;20191;-79
2021/01/01 12:27:30;;;;;;;32.80;20.88;;;;;;;;;;5082453;28;20180;-77
2021/01/01 12:29:56;;;;;;;32.63;21.55;;;;;;;;;;5089145;28;20203;-76
2021/01/01 12:32:23;;;;;;;29.30;21.15;;;;;;;;;;5089842;28;20253;-75
2021/01/01 12:34:49;;;;;;;30.92;21.13;;;;;;;;;;5095530;28;20171;-75
2021/01/01 12:37:15;;;;;;;29.63;21.60;;;;;;;;;;5094204;28;20171;-78
2021/01/01 12:39:42;;;;;;;29.58;20.90;;;;;;;;;;5093509;28;20203;-76
2021/01/01 12:42:08;;;;;;;29.83;21.65;;;;;;;;;;5092766;28;20191;-76
2021/01/01 12:44:34;;;;;;;30.88;21.63;;;;;;;;;;5092685;28;20180;-76
2021/01/01 12:47:00;;;;;;;30.58;21.25;;;;;;;;;;5092873;28;20225;-76
2021/01/01 12:49:26;;;;;;;26.45;20.08;;;;;;;;;;5092776;28;20176;-78
2021/01/01 12:51:52;;;;;;;36.53;20.00;;;;;;;;;;5092075;28;20634;-75
2021/01/01 12:54:18;;;;;;;28.58;20.10;;;;;;;;;;5080582;28;20220;-75
2021/01/01 12:56:45;;;;;;;23.75;18.42;;;;;;;;;;5093691;28;20210;-78
2021/01/01 12:59:11;;;;;;;28.50;17.45;;;;;;;;;;5096771;28;20176;-75
2021/01/01 13:01:37;;;;;;;21.15;16.50;;;;;;;;;;5082610;28;20369;-78
2021/01/01 13:04:03;;;;;;;27.40;19.77;;;;;;;;;;5096036;28;20179;-75
2021/01/01 13:06:29;;;;;;;24.17;17.38;;;;;;;;;;5096188;28;20183;-77
2021/01/01 13:08:58;;;;;;;25.38;17.27;;;;;;;;;;5098791;28;20176;-78
2021/01/01 13:11:25;;;;;;;31.40;23.10;;;;;;;;;;5100251;28;20269;-76
2021/01/01 13:13:51;;;;;;;25.52;18.30;;;;;;;;;;5094415;28;20316;-76
2021/01/01 13:16:27;;;;;;;24.30;17.77;;;;;;;;;;5096525;28;20179;-76
2021/01/01 13:18:54;;;;;;;25.55;17.25;;;;;;;;;;5085725;28;20179;-76
2021/01/01 13:21:33;;;;;;;24.88;17.48;;;;;;;;;;5075618;28;20200;-78
2021/01/01 13:24:00;;;;;;;30.33;19.65;;;;;;;;;;5088196;28;20186;-77
2021/01/01 13:26:27;;;;;;;30.63;20.23;;;;;;;;;;5095905;28;20233;-77
2021/01/01 13:28:53;;;;;;;29.27;20.25;;;;;;;;;;5099125;28;20172;-76
2021/01/01 13:31:20;;;;;;;31.95;22.13;;;;;;;;;;5080009;28;20206;-76
2021/01/01 13:33:46;;;;;;;33.42;22.60;;;;;;;;;;5079586;28;20176;-76
2021/01/01 13:36:17;;;;;;;34.92;23.25;;;;;;;;;;5080169;28;20180;-77
2021/01/01 13:38:43;;;;;;;37.70;24.90;;;;;;;;;;5092185;28;20288;-76
2021/01/01 13:41:10;;;;;;;39.40;26.95;;;;;;;;;;5097148;28;20277;-76
2021/01/01 13:43:37;;;;;;;38.00;26.85;;;;;;;;;;5082429;28;20248;-75
2021/01/01 13:46:03;;;;;;;42.92;27.35;;;;;;;;;;5087971;28;20267;-75
2021/01/01 13:48:29;;;;;;;40.53;27.00;;;;;;;;;;5077137;28;20510;-76
2021/01/01 13:50:55;;;;;;;38.00;26.15;;;;;;;;;;5077708;28;20204;-76
2021/01/01 13:53:21;;;;;;;39.78;25.98;;;;;;;;;;5077028;28;20182;-76
2021/01/01 13:55:47;;;;;;;37.83;26.58;;;;;;;;;;5076018;28;20182;-74
2021/01/01 13:58:13;;;;;;;36.20;25.15;;;;;;;;;;5077057;28;20545;-76
2021/01/01 14:00:39;;;;;;;36.03;24.92;;;;;;;;;;5076444;28;20203;-74
2021/01/01 14:03:05;;;;;;;33.15;24.05;;;;;;;;;;5072383;28;20183;-76
2021/01/01 14:05:31;;;;;;;32.88;23.90;;;;;;;;;;5081783;28;20225;-74
2021/01/01 14:07:57;;;;;;;31.90;22.50;;;;;;;;;;5083845;28;20192;-75
2021/01/01 14:10:23;;;;;;;32.38;21.45;;;;;;;;;;5084871;28;20198;-72
2021/01/01 14:12:49;;;;;;;31.42;21.92;;;;;;;;;;5090412;28;20736;-75
2021/01/01 14:15:15;;;;;;;37.47;25.90;;;;;;;;;;5071034;28;20230;-74
2021/01/01 14:17:41;;;;;;;32.03;22.10;;;;;;;;;;5070364;28;20538;-74
2021/01/01 14:20:07;;;;;;;30.40;21.33;;;;;;;;;;5071099;28;20207;-74
2021/01/01 14:22:33;;;;;;;31.65;21.30;;;;;;;;;;5080805;28;20183;-75
2021/01/01 14:24:59;;;;;;;32.97;21.45;;;;;;;;;;5084671;28;20267;-75
2021/01/01 14:27:25;;;;;;;27.65;20.13;;;;;;;;;;5070729;28;20263;-75
2021/01/01 14:29:51;;;;;;;29.15;19.70;;;;;;;;;;5087013;28;20214;-76
2021/01/01 14:32:17;;;;;;;30.02;20.48;;;;;;;;;;5070345;28;20206;-75
2021/01/01 14:34:43;;;;;;;31.58;21.45;;;;;;;;;;5078568;28;20587;-75
2021/01/01 14:37:09;;;;;;;29.27;19.77;;;;;;;;;;5087740;28;20187;-76
2021/01/01 14:39:37;;;;;;;31.30;20.80;;;;;;;;;;5071665;28;20172;-74
2021/01/01 14:42:03;;;;;;;30.75;19.77;;;;;;;;;;5082705;28;20274;-74
2021/01/01 14:44:29;;;;;;;33.17;21.50;;;;;;;;;;5069857;28;20596;-74
2021/01/01 14:46:58;;;;;;;28.92;21.50;;;;;;;;;;5084634;28;20194;-73
2021/01/01 14:49:25;;;;;;;33.40;20.80;;;;;;;;;;5090270;28;20582;-75
2021/01/01 14:51:51;;;;;;;30.23;20.92;;;;;;;;;;5085634;28;21019;-75
2021/01/01 14:54:18;;;;;;;31.50;21.92;;;;;;;;;;5078268;28;20695;-75
2021/01/01 14:56:44;;;;;;;29.17;20.70;;;;;;;;;;5074195;28;20266;-74
2021/01/01 14:59:10;;;;;;;29.00;20.52;;;;;;;;;;5089983;28;20533;-74
2021/01/01 15:01:36;;;;;;;29.20;20.27;;;;;;;;;;5075874;28;20213;-75
2021/01/01 15:04:03;;;;;;;32.00;21.65;;;;;;;;;;5089015;28;20705;-74
2021/01/01 15:06:29;;;;;;;32.35;22.20;;;;;;;;;;5072126;28;20181;-75
2021/01/01 15:08:55;;;;;;;32.00;20.63;;;;;;;;;;5087332;28;20191;-77
2021/01/01 15:11:21;;;;;;;28.48;20.70;;;;;;;;;;5089410;28;20207;-76
2021/01/01 15:13:48;;;;;;;34.50;22.20;;;;;;;;;;5078201;28;20184;-77
2021/01/01 15:16:14;;;;;;;33.15;22.40;;;;;;;;;;5069605;28;20176;-74
2021/01/01 15:18:40;;;;;;;32.65;22.50;;;;;;;;;;5069452;28;20212;-76
2021/01/01 15:21:06;;;;;;;34.67;23.52;;;;;;;;;;5069386;28;20279;-74
2021/01/01 15:23:35;;;;;;;37.63;23.85;;;;;;;;;;5069153;28;20267;-76
2021/01/01 15:26:01;;;;;;;36.95;24.50;;;;;;;;;;5069374;28;20589;-74